sensor_id;sensor_type;location;lat;lon;timestamp;P1;durP1;ratioP1;P2;durP2;ratioP2
79204;SDS011;68632;47.512;19.104;2023-03-16T00:00:07;9.15;;;4.32;;
79204;SDS011;68632;47.512;19.104;2023-03-16T00:01:14;10.50;;;5.22;;
79204;SDS011;68632;47.512;19.104;2023-03-16T00:02:16;8.25;;;5.10;;
79204;SDS011;68632;47.512;19.104;2023-03-16T00:03:19;7.65;;;4.20;;
79204;SDS011;68632;47.512;19.104;2023-03-16T00:04:21;7.50;;;4.70;;
79204;SDS011;68632;47.512;19.104;2023-03-16T00:05:23;8.88;;;4.68;;
79204;SDS011;68632;47.512;19.104;2023-03-16T00:06:26;9.52;;;6.25;;
79204;SDS011;68632;47.512;19.104;2023-03-16T00:07:28;10.10;;;4.32;;
79204;SDS011;68632;47.512;19.104;2023-03-16T00:08:31;9.10;;;5.35;;
79204;SDS011;68632;47.512;19.104;2023-03-16T00:09:33;15.88;;;7.30;;
79204;SDS011;68632;47.512;19.104;2023-03-16T00:10:36;10.65;;;4.72;;
79204;SDS011;68632;47.512;19.104;2023-03-16T00:11:38;8.35;;;4.93;;
79204;SDS011;68632;47.512;19.104;2023-03-16T00:12:40;9.35;;;5.15;;
79204;SDS011;68632;47.512;19.104;2023-03-16T00:13:44;8.27;;;5.10;;
79204;SDS011;68632;47.512;19.104;2023-03-16T00:14:47;12.30;;;5.68;;
79204;SDS011;68632;47.512;19.104;2023-03-16T00:16:59;11.15;;;4.85;;
79204;SDS011;68632;47.512;19.104;2023-03-16T00:18:02;7.32;;;4.78;;
79204;SDS011;68632;47.512;19.104;2023-03-16T00:19:04;14.40;;;5.03;;
79204;SDS011;68632;47.512;19.104;2023-03-16T00:20:06;8.02;;;5.05;;
79204;SDS011;68632;47.512;19.104;2023-03-16T00:21:09;6.55;;;4.82;;
79204;SDS011;68632;47.512;19.104;2023-03-16T00:22:13;10.85;;;4.72;;
79204;SDS011;68632;47.512;19.104;2023-03-16T00:23:16;9.73;;;5.95;;
79204;SDS011;68632;47.512;19.104;2023-03-16T00:24:18;9.43;;;4.95;;
79204;SDS011;68632;47.512;19.104;2023-03-16T00:25:20;11.57;;;5.25;;
79204;SDS011;68632;47.512;19.104;2023-03-16T00:26:22;7.70;;;5.43;;
79204;SDS011;68632;47.512;19.104;2023-03-16T00:27:26;9.95;;;5.20;;
79204;SDS011;68632;47.512;19.104;2023-03-16T00:28:29;10.35;;;4.90;;
79204;SDS011;68632;47.512;19.104;2023-03-16T00:29:35;8.52;;;5.03;;
79204;SDS011;68632;47.512;19.104;2023-03-16T00:30:37;9.05;;;4.78;;
79204;SDS011;68632;47.512;19.104;2023-03-16T00:31:39;7.03;;;4.75;;
79204;SDS011;68632;47.512;19.104;2023-03-16T00:32:45;7.65;;;5.90;;
79204;SDS011;68632;47.512;19.104;2023-03-16T00:33:47;9.35;;;5.45;;
79204;SDS011;68632;47.512;19.104;2023-03-16T00:34:49;9.20;;;4.78;;
79204;SDS011;68632;47.512;19.104;2023-03-16T00:35:52;7.65;;;5.35;;
79204;SDS011;68632;47.512;19.104;2023-03-16T00:37:03;8.32;;;5.93;;
79204;SDS011;68632;47.512;19.104;2023-03-16T00:38:05;8.15;;;5.00;;
79204;SDS011;68632;47.512;19.104;2023-03-16T00:39:07;9.35;;;5.18;;
79204;SDS011;68632;47.512;19.104;2023-03-16T00:40:11;10.32;;;5.55;;
79204;SDS011;68632;47.512;19.104;2023-03-16T00:41:14;9.43;;;5.43;;
79204;SDS011;68632;47.512;19.104;2023-03-16T00:42:17;9.80;;;5.57;;
79204;SDS011;68632;47.512;19.104;2023-03-16T00:43:20;8.60;;;4.68;;
79204;SDS011;68632;47.512;19.104;2023-03-16T00:44:23;8.88;;;5.03;;
79204;SDS011;68632;47.512;19.104;2023-03-16T00:45:25;9.25;;;4.88;;
79204;SDS011;68632;47.512;19.104;2023-03-16T00:46:27;10.00;;;4.63;;
79204;SDS011;68632;47.512;19.104;2023-03-16T00:47:30;10.25;;;5.60;;
79204;SDS011;68632;47.512;19.104;2023-03-16T00:48:34;8.80;;;5.22;;
79204;SDS011;68632;47.512;19.104;2023-03-16T00:49:37;10.40;;;5.53;;
79204;SDS011;68632;47.512;19.104;2023-03-16T00:50:39;11.05;;;6.05;;
79204;SDS011;68632;47.512;19.104;2023-03-16T00:51:43;8.38;;;5.25;;
79204;SDS011;68632;47.512;19.104;2023-03-16T00:52:47;6.55;;;5.22;;
79204;SDS011;68632;47.512;19.104;2023-03-16T00:53:49;8.25;;;5.10;;
79204;SDS011;68632;47.512;19.104;2023-03-16T00:54:52;10.35;;;6.43;;
79204;SDS011;68632;47.512;19.104;2023-03-16T00:55:54;11.68;;;5.47;;
79204;SDS011;68632;47.512;19.104;2023-03-16T00:56:57;9.85;;;5.90;;
79204;SDS011;68632;47.512;19.104;2023-03-16T00:58:00;6.95;;;4.88;;
79204;SDS011;68632;47.512;19.104;2023-03-16T00:59:05;9.93;;;5.45;;
79204;SDS011;68632;47.512;19.104;2023-03-16T01:00:09;9.82;;;5.32;;
79204;SDS011;68632;47.512;19.104;2023-03-16T01:01:18;13.55;;;6.25;;
79204;SDS011;68632;47.512;19.104;2023-03-16T01:02:21;10.95;;;5.70;;
79204;SDS011;68632;47.512;19.104;2023-03-16T01:03:26;10.02;;;5.50;;
79204;SDS011;68632;47.512;19.104;2023-03-16T01:04:28;12.93;;;5.85;;
79204;SDS011;68632;47.512;19.104;2023-03-16T01:05:30;10.18;;;5.32;;
79204;SDS011;68632;47.512;19.104;2023-03-16T01:06:34;12.55;;;6.20;;
79204;SDS011;68632;47.512;19.104;2023-03-16T01:07:40;10.00;;;5.93;;
79204;SDS011;68632;47.512;19.104;2023-03-16T01:08:43;10.95;;;6.80;;
79204;SDS011;68632;47.512;19.104;2023-03-16T01:09:46;8.30;;;5.07;;
79204;SDS011;68632;47.512;19.104;2023-03-16T01:10:48;8.23;;;5.15;;
79204;SDS011;68632;47.512;19.104;2023-03-16T01:11:50;10.10;;;5.53;;
79204;SDS011;68632;47.512;19.104;2023-03-16T01:12:55;11.13;;;5.35;;
79204;SDS011;68632;47.512;19.104;2023-03-16T01:13:57;9.32;;;4.53;;
79204;SDS011;68632;47.512;19.104;2023-03-16T01:14:59;8.20;;;5.40;;
79204;SDS011;68632;47.512;19.104;2023-03-16T01:16:02;8.88;;;5.40;;
79204;SDS011;68632;47.512;19.104;2023-03-16T01:17:05;6.70;;;5.35;;
79204;SDS011;68632;47.512;19.104;2023-03-16T01:18:09;11.68;;;5.88;;
79204;SDS011;68632;47.512;19.104;2023-03-16T01:19:14;9.43;;;5.47;;
79204;SDS011;68632;47.512;19.104;2023-03-16T01:20:16;10.63;;;5.15;;
79204;SDS011;68632;47.512;19.104;2023-03-16T01:21:20;10.75;;;6.53;;
79204;SDS011;68632;47.512;19.104;2023-03-16T01:22:22;9.07;;;5.28;;
79204;SDS011;68632;47.512;19.104;2023-03-16T01:23:24;11.35;;;6.10;;
79204;SDS011;68632;47.512;19.104;2023-03-16T01:24:27;9.38;;;5.57;;
79204;SDS011;68632;47.512;19.104;2023-03-16T01:25:29;8.40;;;4.95;;
79204;SDS011;68632;47.512;19.104;2023-03-16T01:26:33;10.38;;;6.00;;
79204;SDS011;68632;47.512;19.104;2023-03-16T01:27:36;10.30;;;4.80;;
79204;SDS011;68632;47.512;19.104;2023-03-16T01:28:38;11.70;;;5.38;;
79204;SDS011;68632;47.512;19.104;2023-03-16T01:29:40;17.95;;;5.43;;
79204;SDS011;68632;47.512;19.104;2023-03-16T01:30:44;8.43;;;5.13;;
79204;SDS011;68632;47.512;19.104;2023-03-16T01:31:46;11.82;;;5.78;;
79204;SDS011;68632;47.512;19.104;2023-03-16T01:32:50;5.85;;;4.90;;
79204;SDS011;68632;47.512;19.104;2023-03-16T01:33:52;12.88;;;4.93;;
79204;SDS011;68632;47.512;19.104;2023-03-16T01:34:55;6.65;;;4.38;;
79204;SDS011;68632;47.512;19.104;2023-03-16T01:35:58;8.90;;;5.00;;
79204;SDS011;68632;47.512;19.104;2023-03-16T01:38:04;7.20;;;4.90;;
79204;SDS011;68632;47.512;19.104;2023-03-16T01:39:06;10.90;;;5.93;;
79204;SDS011;68632;47.512;19.104;2023-03-16T01:40:08;8.45;;;4.63;;
79204;SDS011;68632;47.512;19.104;2023-03-16T01:41:13;10.02;;;4.80;;
79204;SDS011;68632;47.512;19.104;2023-03-16T01:42:15;10.07;;;4.70;;
79204;SDS011;68632;47.512;19.104;2023-03-16T01:43:18;8.52;;;5.00;;
79204;SDS011;68632;47.512;19.104;2023-03-16T01:44:22;10.80;;;4.07;;
79204;SDS011;68632;47.512;19.104;2023-03-16T01:47:07;7.82;;;4.20;;
79204;SDS011;68632;47.512;19.104;2023-03-16T01:48:10;7.13;;;4.50;;
79204;SDS011;68632;47.512;19.104;2023-03-16T01:50:24;7.05;;;4.05;;
79204;SDS011;68632;47.512;19.104;2023-03-16T01:52:31;6.90;;;4.05;;
79204;SDS011;68632;47.512;19.104;2023-03-16T01:53:35;6.60;;;4.03;;
79204;SDS011;68632;47.512;19.104;2023-03-16T01:54:42;7.95;;;4.75;;
79204;SDS011;68632;47.512;19.104;2023-03-16T01:55:49;8.15;;;4.55;;
79204;SDS011;68632;47.512;19.104;2023-03-16T01:57:02;7.88;;;4.10;;
79204;SDS011;68632;47.512;19.104;2023-03-16T01:58:12;10.10;;;4.75;;
79204;SDS011;68632;47.512;19.104;2023-03-16T01:59:15;6.80;;;4.35;;
79204;SDS011;68632;47.512;19.104;2023-03-16T02:00:19;9.65;;;4.63;;
79204;SDS011;68632;47.512;19.104;2023-03-16T02:01:25;10.57;;;4.72;;
79204;SDS011;68632;47.512;19.104;2023-03-16T02:02:29;7.22;;;4.50;;
79204;SDS011;68632;47.512;19.104;2023-03-16T02:03:32;8.23;;;4.57;;
79204;SDS011;68632;47.512;19.104;2023-03-16T02:04:53;12.25;;;5.05;;
79204;SDS011;68632;47.512;19.104;2023-03-16T02:06:09;14.23;;;4.72;;
79204;SDS011;68632;47.512;19.104;2023-03-16T02:07:13;7.68;;;4.78;;
79204;SDS011;68632;47.512;19.104;2023-03-16T02:08:18;9.10;;;4.75;;
79204;SDS011;68632;47.512;19.104;2023-03-16T02:09:20;11.45;;;5.95;;
79204;SDS011;68632;47.512;19.104;2023-03-16T02:10:23;8.13;;;4.65;;
79204;SDS011;68632;47.512;19.104;2023-03-16T02:11:27;12.75;;;6.05;;
79204;SDS011;68632;47.512;19.104;2023-03-16T02:12:29;9.23;;;5.30;;
79204;SDS011;68632;47.512;19.104;2023-03-16T02:13:31;10.10;;;5.15;;
79204;SDS011;68632;47.512;19.104;2023-03-16T02:14:37;12.70;;;6.97;;
79204;SDS011;68632;47.512;19.104;2023-03-16T02:15:39;13.60;;;6.50;;
79204;SDS011;68632;47.512;19.104;2023-03-16T02:16:42;8.50;;;6.35;;
79204;SDS011;68632;47.512;19.104;2023-03-16T02:17:44;7.03;;;5.07;;
79204;SDS011;68632;47.512;19.104;2023-03-16T02:18:48;10.15;;;4.85;;
79204;SDS011;68632;47.512;19.104;2023-03-16T02:21:07;8.32;;;5.55;;
79204;SDS011;68632;47.512;19.104;2023-03-16T02:22:17;10.75;;;5.80;;
79204;SDS011;68632;47.512;19.104;2023-03-16T02:23:19;10.88;;;5.38;;
79204;SDS011;68632;47.512;19.104;2023-03-16T02:24:22;8.63;;;5.05;;
79204;SDS011;68632;47.512;19.104;2023-03-16T02:25:30;7.70;;;5.47;;
79204;SDS011;68632;47.512;19.104;2023-03-16T02:26:47;10.15;;;5.65;;
79204;SDS011;68632;47.512;19.104;2023-03-16T02:29:19;9.85;;;5.32;;
79204;SDS011;68632;47.512;19.104;2023-03-16T02:30:28;9.75;;;5.20;;
79204;SDS011;68632;47.512;19.104;2023-03-16T02:31:31;9.27;;;5.72;;
79204;SDS011;68632;47.512;19.104;2023-03-16T02:32:35;8.30;;;5.50;;
79204;SDS011;68632;47.512;19.104;2023-03-16T02:33:37;7.72;;;5.38;;
79204;SDS011;68632;47.512;19.104;2023-03-16T02:34:40;8.15;;;5.85;;
79204;SDS011;68632;47.512;19.104;2023-03-16T02:35:43;8.23;;;5.72;;
79204;SDS011;68632;47.512;19.104;2023-03-16T02:36:45;9.50;;;5.32;;
79204;SDS011;68632;47.512;19.104;2023-03-16T02:37:48;11.82;;;5.93;;
79204;SDS011;68632;47.512;19.104;2023-03-16T02:38:50;11.45;;;6.03;;
79204;SDS011;68632;47.512;19.104;2023-03-16T02:39:53;10.32;;;5.82;;
79204;SDS011;68632;47.512;19.104;2023-03-16T02:40:59;8.50;;;5.30;;
79204;SDS011;68632;47.512;19.104;2023-03-16T02:42:08;9.38;;;5.60;;
79204;SDS011;68632;47.512;19.104;2023-03-16T02:43:15;9.45;;;6.07;;
79204;SDS011;68632;47.512;19.104;2023-03-16T02:44:24;9.43;;;4.93;;
79204;SDS011;68632;47.512;19.104;2023-03-16T02:45:33;8.05;;;5.50;;
79204;SDS011;68632;47.512;19.104;2023-03-16T02:46:41;9.35;;;5.38;;
79204;SDS011;68632;47.512;19.104;2023-03-16T02:47:44;8.45;;;6.07;;
79204;SDS011;68632;47.512;19.104;2023-03-16T02:50:04;12.40;;;5.85;;
79204;SDS011;68632;47.512;19.104;2023-03-16T02:51:07;10.13;;;6.25;;
79204;SDS011;68632;47.512;19.104;2023-03-16T02:52:10;10.55;;;5.95;;
79204;SDS011;68632;47.512;19.104;2023-03-16T02:53:13;13.13;;;6.38;;
79204;SDS011;68632;47.512;19.104;2023-03-16T02:54:15;12.43;;;6.22;;
79204;SDS011;68632;47.512;19.104;2023-03-16T02:55:18;11.10;;;6.25;;
79204;SDS011;68632;47.512;19.104;2023-03-16T02:56:20;12.10;;;6.32;;
79204;SDS011;68632;47.512;19.104;2023-03-16T02:57:23;8.60;;;5.50;;
79204;SDS011;68632;47.512;19.104;2023-03-16T02:58:25;9.50;;;5.68;;
79204;SDS011;68632;47.512;19.104;2023-03-16T02:59:27;9.07;;;5.80;;
79204;SDS011;68632;47.512;19.104;2023-03-16T03:00:29;9.43;;;5.47;;
79204;SDS011;68632;47.512;19.104;2023-03-16T03:01:33;9.07;;;6.10;;
79204;SDS011;68632;47.512;19.104;2023-03-16T03:02:35;10.13;;;5.63;;
79204;SDS011;68632;47.512;19.104;2023-03-16T03:03:37;8.18;;;5.95;;
79204;SDS011;68632;47.512;19.104;2023-03-16T03:04:40;10.40;;;5.75;;
79204;SDS011;68632;47.512;19.104;2023-03-16T03:05:43;10.45;;;5.88;;
79204;SDS011;68632;47.512;19.104;2023-03-16T03:06:45;8.30;;;6.55;;
79204;SDS011;68632;47.512;19.104;2023-03-16T03:07:47;11.48;;;5.70;;
79204;SDS011;68632;47.512;19.104;2023-03-16T03:08:49;11.32;;;5.47;;
79204;SDS011;68632;47.512;19.104;2023-03-16T03:09:52;11.70;;;6.05;;
79204;SDS011;68632;47.512;19.104;2023-03-16T03:10:54;9.05;;;5.30;;
79204;SDS011;68632;47.512;19.104;2023-03-16T03:11:56;7.63;;;4.80;;
79204;SDS011;68632;47.512;19.104;2023-03-16T03:12:59;13.60;;;6.57;;
79204;SDS011;68632;47.512;19.104;2023-03-16T03:14:01;10.38;;;5.32;;
79204;SDS011;68632;47.512;19.104;2023-03-16T03:15:03;8.95;;;5.75;;
79204;SDS011;68632;47.512;19.104;2023-03-16T03:16:06;12.20;;;5.50;;
79204;SDS011;68632;47.512;19.104;2023-03-16T03:17:08;10.63;;;6.35;;
79204;SDS011;68632;47.512;19.104;2023-03-16T03:18:11;9.65;;;5.07;;
79204;SDS011;68632;47.512;19.104;2023-03-16T03:19:13;12.02;;;5.55;;
79204;SDS011;68632;47.512;19.104;2023-03-16T03:20:18;9.25;;;5.53;;
79204;SDS011;68632;47.512;19.104;2023-03-16T03:21:20;9.25;;;5.30;;
79204;SDS011;68632;47.512;19.104;2023-03-16T03:22:25;9.80;;;5.88;;
79204;SDS011;68632;47.512;19.104;2023-03-16T03:23:27;12.48;;;6.38;;
79204;SDS011;68632;47.512;19.104;2023-03-16T03:24:29;14.02;;;5.55;;
79204;SDS011;68632;47.512;19.104;2023-03-16T03:25:32;10.00;;;6.80;;
79204;SDS011;68632;47.512;19.104;2023-03-16T03:26:37;10.88;;;6.43;;
79204;SDS011;68632;47.512;19.104;2023-03-16T03:27:39;11.25;;;5.97;;
79204;SDS011;68632;47.512;19.104;2023-03-16T03:28:45;12.43;;;5.68;;
79204;SDS011;68632;47.512;19.104;2023-03-16T03:29:48;11.07;;;5.47;;
79204;SDS011;68632;47.512;19.104;2023-03-16T03:30:50;12.30;;;5.55;;
79204;SDS011;68632;47.512;19.104;2023-03-16T03:31:52;9.88;;;6.18;;
79204;SDS011;68632;47.512;19.104;2023-03-16T03:32:54;10.32;;;6.68;;
79204;SDS011;68632;47.512;19.104;2023-03-16T03:33:57;9.45;;;6.18;;
79204;SDS011;68632;47.512;19.104;2023-03-16T03:34:59;12.23;;;6.38;;
79204;SDS011;68632;47.512;19.104;2023-03-16T03:36:01;11.20;;;5.95;;
79204;SDS011;68632;47.512;19.104;2023-03-16T03:37:04;13.25;;;6.28;;
79204;SDS011;68632;47.512;19.104;2023-03-16T03:38:06;12.23;;;6.47;;
79204;SDS011;68632;47.512;19.104;2023-03-16T03:39:09;12.55;;;6.90;;
79204;SDS011;68632;47.512;19.104;2023-03-16T03:40:12;10.10;;;6.63;;
79204;SDS011;68632;47.512;19.104;2023-03-16T03:41:15;12.25;;;6.38;;
79204;SDS011;68632;47.512;19.104;2023-03-16T03:42:18;10.05;;;6.65;;
79204;SDS011;68632;47.512;19.104;2023-03-16T03:43:20;11.98;;;6.32;;
79204;SDS011;68632;47.512;19.104;2023-03-16T03:44:22;12.13;;;6.43;;
79204;SDS011;68632;47.512;19.104;2023-03-16T03:45:24;12.98;;;6.57;;
79204;SDS011;68632;47.512;19.104;2023-03-16T03:46:27;11.27;;;6.18;;
79204;SDS011;68632;47.512;19.104;2023-03-16T03:47:29;12.32;;;7.25;;
79204;SDS011;68632;47.512;19.104;2023-03-16T03:48:32;9.32;;;5.72;;
79204;SDS011;68632;47.512;19.104;2023-03-16T03:49:34;9.18;;;5.80;;
79204;SDS011;68632;47.512;19.104;2023-03-16T03:50:36;11.38;;;6.38;;
79204;SDS011;68632;47.512;19.104;2023-03-16T03:51:40;9.73;;;6.25;;
79204;SDS011;68632;47.512;19.104;2023-03-16T03:52:42;11.25;;;6.15;;
79204;SDS011;68632;47.512;19.104;2023-03-16T03:53:44;10.98;;;6.82;;
79204;SDS011;68632;47.512;19.104;2023-03-16T03:54:46;12.77;;;6.35;;
79204;SDS011;68632;47.512;19.104;2023-03-16T03:55:48;12.88;;;7.15;;
79204;SDS011;68632;47.512;19.104;2023-03-16T03:56:51;10.10;;;6.93;;
79204;SDS011;68632;47.512;19.104;2023-03-16T03:57:53;13.93;;;6.13;;
79204;SDS011;68632;47.512;19.104;2023-03-16T03:58:56;10.90;;;6.28;;
79204;SDS011;68632;47.512;19.104;2023-03-16T03:59:58;11.27;;;6.95;;
79204;SDS011;68632;47.512;19.104;2023-03-16T04:01:00;14.15;;;7.18;;
79204;SDS011;68632;47.512;19.104;2023-03-16T04:02:02;10.23;;;6.45;;
79204;SDS011;68632;47.512;19.104;2023-03-16T04:03:04;12.68;;;6.53;;
79204;SDS011;68632;47.512;19.104;2023-03-16T04:04:07;11.40;;;7.22;;
79204;SDS011;68632;47.512;19.104;2023-03-16T04:05:09;14.10;;;7.15;;
79204;SDS011;68632;47.512;19.104;2023-03-16T04:06:11;17.67;;;6.35;;
79204;SDS011;68632;47.512;19.104;2023-03-16T04:07:13;11.30;;;6.68;;
79204;SDS011;68632;47.512;19.104;2023-03-16T04:08:16;11.60;;;7.03;;
79204;SDS011;68632;47.512;19.104;2023-03-16T04:09:18;10.77;;;6.68;;
79204;SDS011;68632;47.512;19.104;2023-03-16T04:10:20;10.93;;;6.75;;
79204;SDS011;68632;47.512;19.104;2023-03-16T04:11:22;12.25;;;7.57;;
79204;SDS011;68632;47.512;19.104;2023-03-16T04:12:24;16.65;;;7.32;;
79204;SDS011;68632;47.512;19.104;2023-03-16T04:13:26;11.93;;;7.43;;
79204;SDS011;68632;47.512;19.104;2023-03-16T04:14:29;12.88;;;7.65;;
79204;SDS011;68632;47.512;19.104;2023-03-16T04:15:31;13.38;;;6.90;;
79204;SDS011;68632;47.512;19.104;2023-03-16T04:16:33;11.98;;;6.88;;
79204;SDS011;68632;47.512;19.104;2023-03-16T04:17:36;12.43;;;7.53;;
79204;SDS011;68632;47.512;19.104;2023-03-16T04:18:38;10.00;;;6.05;;
79204;SDS011;68632;47.512;19.104;2023-03-16T04:19:40;13.40;;;7.22;;
79204;SDS011;68632;47.512;19.104;2023-03-16T04:20:42;10.23;;;6.50;;
79204;SDS011;68632;47.512;19.104;2023-03-16T04:21:44;11.90;;;7.18;;
79204;SDS011;68632;47.512;19.104;2023-03-16T04:22:46;15.48;;;7.55;;
79204;SDS011;68632;47.512;19.104;2023-03-16T04:23:49;12.60;;;7.38;;
79204;SDS011;68632;47.512;19.104;2023-03-16T04:24:55;14.63;;;7.72;;
79204;SDS011;68632;47.512;19.104;2023-03-16T04:25:57;10.75;;;6.72;;
79204;SDS011;68632;47.512;19.104;2023-03-16T04:26:59;12.98;;;7.53;;
79204;SDS011;68632;47.512;19.104;2023-03-16T04:28:03;12.05;;;6.80;;
79204;SDS011;68632;47.512;19.104;2023-03-16T04:29:06;12.70;;;6.68;;
79204;SDS011;68632;47.512;19.104;2023-03-16T04:30:09;12.68;;;6.70;;
79204;SDS011;68632;47.512;19.104;2023-03-16T04:31:13;13.90;;;7.40;;
79204;SDS011;68632;47.512;19.104;2023-03-16T04:32:15;11.52;;;7.40;;
79204;SDS011;68632;47.512;19.104;2023-03-16T04:33:17;16.20;;;6.63;;
79204;SDS011;68632;47.512;19.104;2023-03-16T04:34:20;14.63;;;7.40;;
79204;SDS011;68632;47.512;19.104;2023-03-16T04:35:26;12.23;;;7.00;;
79204;SDS011;68632;47.512;19.104;2023-03-16T04:36:28;18.85;;;7.95;;
79204;SDS011;68632;47.512;19.104;2023-03-16T04:37:31;14.77;;;7.18;;
79204;SDS011;68632;47.512;19.104;2023-03-16T04:38:33;14.98;;;7.72;;
79204;SDS011;68632;47.512;19.104;2023-03-16T04:39:36;12.32;;;7.28;;
79204;SDS011;68632;47.512;19.104;2023-03-16T04:40:39;16.83;;;8.20;;
79204;SDS011;68632;47.512;19.104;2023-03-16T04:41:41;20.05;;;8.35;;
79204;SDS011;68632;47.512;19.104;2023-03-16T04:42:44;18.17;;;7.80;;
79204;SDS011;68632;47.512;19.104;2023-03-16T04:43:47;9.98;;;7.05;;
79204;SDS011;68632;47.512;19.104;2023-03-16T04:44:49;12.57;;;7.70;;
79204;SDS011;68632;47.512;19.104;2023-03-16T04:45:51;12.88;;;7.60;;
79204;SDS011;68632;47.512;19.104;2023-03-16T04:46:53;14.20;;;7.57;;
79204;SDS011;68632;47.512;19.104;2023-03-16T04:47:55;12.50;;;7.75;;
79204;SDS011;68632;47.512;19.104;2023-03-16T04:48:58;14.02;;;8.10;;
79204;SDS011;68632;47.512;19.104;2023-03-16T04:50:00;12.18;;;7.47;;
79204;SDS011;68632;47.512;19.104;2023-03-16T04:51:03;13.00;;;6.78;;
79204;SDS011;68632;47.512;19.104;2023-03-16T04:52:06;15.65;;;7.22;;
79204;SDS011;68632;47.512;19.104;2023-03-16T04:53:09;12.27;;;7.70;;
79204;SDS011;68632;47.512;19.104;2023-03-16T04:54:11;16.63;;;7.65;;
79204;SDS011;68632;47.512;19.104;2023-03-16T04:55:14;12.38;;;7.55;;
79204;SDS011;68632;47.512;19.104;2023-03-16T04:56:16;15.27;;;7.30;;
79204;SDS011;68632;47.512;19.104;2023-03-16T04:57:20;12.82;;;7.07;;
79204;SDS011;68632;47.512;19.104;2023-03-16T04:58:23;15.50;;;7.85;;
79204;SDS011;68632;47.512;19.104;2023-03-16T04:59:26;20.17;;;9.77;;
79204;SDS011;68632;47.512;19.104;2023-03-16T05:00:28;14.48;;;7.78;;
79204;SDS011;68632;47.512;19.104;2023-03-16T05:01:31;15.27;;;7.32;;
79204;SDS011;68632;47.512;19.104;2023-03-16T05:02:33;14.32;;;7.95;;
79204;SDS011;68632;47.512;19.104;2023-03-16T05:03:36;17.45;;;8.02;;
79204;SDS011;68632;47.512;19.104;2023-03-16T05:04:38;14.18;;;8.35;;
79204;SDS011;68632;47.512;19.104;2023-03-16T05:05:40;14.20;;;8.70;;
79204;SDS011;68632;47.512;19.104;2023-03-16T05:06:43;12.20;;;7.45;;
79204;SDS011;68632;47.512;19.104;2023-03-16T05:07:46;13.68;;;7.85;;
79204;SDS011;68632;47.512;19.104;2023-03-16T05:08:48;14.77;;;7.90;;
79204;SDS011;68632;47.512;19.104;2023-03-16T05:09:50;12.90;;;7.90;;
79204;SDS011;68632;47.512;19.104;2023-03-16T05:10:56;11.50;;;7.53;;
79204;SDS011;68632;47.512;19.104;2023-03-16T05:11:58;16.30;;;7.65;;
79204;SDS011;68632;47.512;19.104;2023-03-16T05:13:01;17.52;;;8.02;;
79204;SDS011;68632;47.512;19.104;2023-03-16T05:14:03;14.30;;;7.70;;
79204;SDS011;68632;47.512;19.104;2023-03-16T05:15:05;14.75;;;7.38;;
79204;SDS011;68632;47.512;19.104;2023-03-16T05:16:08;13.20;;;7.90;;
79204;SDS011;68632;47.512;19.104;2023-03-16T05:17:10;13.35;;;7.78;;
79204;SDS011;68632;47.512;19.104;2023-03-16T05:19:17;12.52;;;7.35;;
79204;SDS011;68632;47.512;19.104;2023-03-16T05:20:19;16.27;;;7.82;;
79204;SDS011;68632;47.512;19.104;2023-03-16T05:21:22;15.25;;;8.23;;
79204;SDS011;68632;47.512;19.104;2023-03-16T05:22:25;16.05;;;9.20;;
79204;SDS011;68632;47.512;19.104;2023-03-16T05:23:27;13.50;;;8.43;;
79204;SDS011;68632;47.512;19.104;2023-03-16T05:24:29;11.52;;;7.40;;
79204;SDS011;68632;47.512;19.104;2023-03-16T05:25:31;15.48;;;8.15;;
79204;SDS011;68632;47.512;19.104;2023-03-16T05:26:33;12.88;;;8.35;;
79204;SDS011;68632;47.512;19.104;2023-03-16T05:27:36;14.10;;;8.50;;
79204;SDS011;68632;47.512;19.104;2023-03-16T05:28:38;15.40;;;8.38;;
79204;SDS011;68632;47.512;19.104;2023-03-16T05:29:40;14.55;;;8.02;;
79204;SDS011;68632;47.512;19.104;2023-03-16T05:30:46;13.25;;;7.07;;
79204;SDS011;68632;47.512;19.104;2023-03-16T05:31:49;15.10;;;8.43;;
79204;SDS011;68632;47.512;19.104;2023-03-16T05:32:51;13.73;;;8.50;;
79204;SDS011;68632;47.512;19.104;2023-03-16T05:33:53;16.55;;;8.60;;
79204;SDS011;68632;47.512;19.104;2023-03-16T05:34:56;12.30;;;8.18;;
79204;SDS011;68632;47.512;19.104;2023-03-16T05:35:59;17.67;;;8.73;;
79204;SDS011;68632;47.512;19.104;2023-03-16T05:37:03;14.98;;;8.38;;
79204;SDS011;68632;47.512;19.104;2023-03-16T05:38:07;17.45;;;10.02;;
79204;SDS011;68632;47.512;19.104;2023-03-16T05:39:10;11.05;;;9.05;;
79204;SDS011;68632;47.512;19.104;2023-03-16T05:40:13;11.70;;;8.55;;
79204;SDS011;68632;47.512;19.104;2023-03-16T05:41:18;13.52;;;8.70;;
79204;SDS011;68632;47.512;19.104;2023-03-16T05:42:22;12.25;;;8.10;;
79204;SDS011;68632;47.512;19.104;2023-03-16T05:43:24;14.93;;;8.93;;
79204;SDS011;68632;47.512;19.104;2023-03-16T05:44:26;16.08;;;8.60;;
79204;SDS011;68632;47.512;19.104;2023-03-16T05:45:29;18.05;;;7.97;;
79204;SDS011;68632;47.512;19.104;2023-03-16T05:46:31;10.80;;;7.28;;
79204;SDS011;68632;47.512;19.104;2023-03-16T05:47:34;13.20;;;7.38;;
79204;SDS011;68632;47.512;19.104;2023-03-16T05:48:38;11.55;;;8.00;;
79204;SDS011;68632;47.512;19.104;2023-03-16T05:49:40;13.55;;;7.60;;
79204;SDS011;68632;47.512;19.104;2023-03-16T05:50:42;12.32;;;8.07;;
79204;SDS011;68632;47.512;19.104;2023-03-16T05:51:44;15.25;;;7.95;;
79204;SDS011;68632;47.512;19.104;2023-03-16T05:52:46;19.75;;;8.82;;
79204;SDS011;68632;47.512;19.104;2023-03-16T05:53:49;15.75;;;8.60;;
79204;SDS011;68632;47.512;19.104;2023-03-16T05:54:51;15.55;;;7.90;;
79204;SDS011;68632;47.512;19.104;2023-03-16T05:55:53;12.85;;;9.13;;
79204;SDS011;68632;47.512;19.104;2023-03-16T05:56:55;16.05;;;8.32;;
79204;SDS011;68632;47.512;19.104;2023-03-16T05:57:57;14.40;;;8.52;;
79204;SDS011;68632;47.512;19.104;2023-03-16T05:59:00;11.73;;;7.93;;
79204;SDS011;68632;47.512;19.104;2023-03-16T06:00:05;14.13;;;8.30;;
79204;SDS011;68632;47.512;19.104;2023-03-16T06:01:16;14.48;;;9.23;;
79204;SDS011;68632;47.512;19.104;2023-03-16T06:02:18;13.57;;;8.13;;
79204;SDS011;68632;47.512;19.104;2023-03-16T06:03:20;15.57;;;7.82;;
79204;SDS011;68632;47.512;19.104;2023-03-16T06:04:23;13.15;;;8.13;;
79204;SDS011;68632;47.512;19.104;2023-03-16T06:05:25;12.75;;;8.32;;
79204;SDS011;68632;47.512;19.104;2023-03-16T06:06:29;14.75;;;9.00;;
79204;SDS011;68632;47.512;19.104;2023-03-16T06:07:32;17.48;;;9.52;;
79204;SDS011;68632;47.512;19.104;2023-03-16T06:08:35;13.82;;;8.93;;
79204;SDS011;68632;47.512;19.104;2023-03-16T06:09:37;16.02;;;8.52;;
79204;SDS011;68632;47.512;19.104;2023-03-16T06:10:39;20.58;;;10.30;;
79204;SDS011;68632;47.512;19.104;2023-03-16T06:11:41;16.17;;;8.80;;
79204;SDS011;68632;47.512;19.104;2023-03-16T06:12:44;14.75;;;8.38;;
79204;SDS011;68632;47.512;19.104;2023-03-16T06:13:47;15.65;;;9.20;;
79204;SDS011;68632;47.512;19.104;2023-03-16T06:14:49;14.70;;;7.60;;
79204;SDS011;68632;47.512;19.104;2023-03-16T06:15:51;14.00;;;8.10;;
79204;SDS011;68632;47.512;19.104;2023-03-16T06:16:54;11.35;;;7.93;;
79204;SDS011;68632;47.512;19.104;2023-03-16T06:17:56;13.35;;;7.95;;
79204;SDS011;68632;47.512;19.104;2023-03-16T06:18:58;12.07;;;7.45;;
79204;SDS011;68632;47.512;19.104;2023-03-16T06:20:00;13.57;;;7.78;;
79204;SDS011;68632;47.512;19.104;2023-03-16T06:21:03;13.02;;;7.97;;
79204;SDS011;68632;47.512;19.104;2023-03-16T06:22:05;15.00;;;8.60;;